createdAt,value
2023-05-09T00:01:13.378Z,100789.31
2023-05-09T00:03:41.942Z,100783.56
2023-05-09T00:06:11.647Z,100791.94
2023-05-09T00:08:39.657Z,100794.22
2023-05-09T00:11:07.639Z,100785.47
2023-05-09T00:13:35.950Z,100786.25
2023-05-09T00:16:04.390Z,100794.31
2023-05-09T00:18:34.148Z,100776.97
2023-05-09T00:21:03.194Z,100778.03
2023-05-09T00:23:32.542Z,100778.78
2023-05-09T00:26:00.672Z,100771.22
2023-05-09T00:28:28.669Z,100774.75
2023-05-09T00:30:56.876Z,100768.78
2023-05-09T00:33:27.000Z,100772.69
2023-05-09T00:35:55.090Z,100768.34
2023-05-09T00:38:23.985Z,100772.97
2023-05-09T00:40:53.499Z,100766.59
2023-05-09T00:43:22.537Z,100777.56
2023-05-09T00:45:51.173Z,100778.38
2023-05-09T00:48:19.618Z,100774.59
2023-05-09T00:50:52.842Z,100762.22
2023-05-09T00:53:20.903Z,100760.94
2023-05-09T00:55:49.385Z,100756.44
2023-05-09T00:58:19.494Z,100764.81
2023-05-09T01:00:48.075Z,100759.50
2023-05-09T01:03:16.381Z,100761.88
2023-05-09T01:05:53.626Z,100756.19
2023-05-09T01:08:34.877Z,100759.59
2023-05-09T01:11:07.948Z,100761.72
2023-05-09T01:13:43.792Z,100751.44
2023-05-09T01:16:18.882Z,100756.97
2023-05-09T01:18:51.319Z,100749.44
2023-05-09T01:21:24.224Z,100745.06
2023-05-09T01:24:04.586Z,100750.63
2023-05-09T01:26:45.258Z,100740.34
2023-05-09T01:29:40.888Z,100747.66
2023-05-09T01:32:11.104Z,100747.78
2023-05-09T01:34:41.910Z,100741.97
2023-05-09T01:37:10.794Z,100745.06
2023-05-09T01:39:42.578Z,100743.88
2023-05-09T01:42:13.015Z,100745.50
2023-05-09T01:44:44.535Z,100745.13
2023-05-09T01:47:13.370Z,100748.44
2023-05-09T01:49:42.577Z,100744.91
2023-05-09T01:52:14.692Z,100739.69
2023-05-09T01:54:44.229Z,100746.06
2023-05-09T01:57:13.385Z,100750.19
2023-05-09T01:59:47.792Z,100746.41
2023-05-09T02:02:16.403Z,100743.19
2023-05-09T02:04:45.312Z,100746.91
2023-05-09T02:07:13.729Z,100746.69
2023-05-09T02:09:41.955Z,100749.34
2023-05-09T02:12:09.934Z,100753.47
2023-05-09T02:14:37.942Z,100751.34
2023-05-09T02:17:09.714Z,100764.69
2023-05-09T02:19:37.798Z,100768.16
2023-05-09T02:22:06.013Z,100763.66
2023-05-09T02:24:35.221Z,100766.91
2023-05-09T02:27:04.752Z,100757.94
2023-05-09T02:29:40.513Z,100770.81
2023-05-09T02:32:13.817Z,100764.72
2023-05-09T02:34:43.144Z,100759.78
2023-05-09T02:37:12.046Z,100755.44
2023-05-09T02:39:39.949Z,100754.06
2023-05-09T02:42:09.690Z,100751.56
2023-05-09T02:44:38.858Z,100750.63
2023-05-09T02:47:08.835Z,100750.47
2023-05-09T02:49:38.255Z,100750.00
2023-05-09T02:52:06.641Z,100749.56
2023-05-09T02:54:34.648Z,100748.06
2023-05-09T02:57:02.616Z,100749.25
2023-05-09T02:59:31.121Z,100749.16
2023-05-09T03:01:59.141Z,100742.50
2023-05-09T03:04:27.444Z,100740.81
2023-05-09T03:06:56.851Z,100744.88
2023-05-09T03:09:26.949Z,100733.75
2023-05-09T03:11:56.632Z,100740.09
2023-05-09T03:14:24.689Z,100732.81
2023-05-09T03:16:52.662Z,100741.56
2023-05-09T03:19:20.767Z,100734.34
2023-05-09T03:21:48.816Z,100722.25
2023-05-09T03:24:18.269Z,100736.16
2023-05-09T03:26:46.192Z,100735.22
2023-05-09T03:29:14.142Z,100737.03
2023-05-09T03:31:42.128Z,100735.06
2023-05-09T03:34:15.239Z,100730.25
2023-05-09T03:36:43.825Z,100730.16
2023-05-09T03:39:12.218Z,100728.19
2023-05-09T03:41:42.023Z,100732.06
2023-05-09T03:44:11.598Z,100734.94
2023-05-09T03:46:39.596Z,100733.38
2023-05-09T03:49:07.890Z,100735.41
2023-05-09T03:51:36.731Z,100723.53
2023-05-09T03:54:04.958Z,100726.38
2023-05-09T03:56:32.927Z,100731.56
2023-05-09T03:59:02.305Z,100725.91
2023-05-09T04:01:30.324Z,100721.53
2023-05-09T04:03:58.731Z,100711.56
2023-05-09T04:06:26.902Z,100710.59
2023-05-09T04:08:55.098Z,100709.69
2023-05-09T04:11:23.090Z,100713.69
2023-05-09T04:13:51.118Z,100705.09
2023-05-09T04:16:20.664Z,100707.47
2023-05-09T04:18:48.658Z,100708.75
2023-05-09T04:21:16.666Z,100707.34
2023-05-09T04:23:44.770Z,100705.13
2023-05-09T04:26:14.063Z,100714.66
2023-05-09T04:28:42.447Z,100711.88
2023-05-09T04:31:12.737Z,100708.31
2023-05-09T04:33:42.152Z,100709.94
2023-05-09T04:36:15.401Z,100707.13
2023-05-09T04:38:43.467Z,100712.88
2023-05-09T04:41:11.427Z,100717.25
2023-05-09T04:43:39.718Z,100709.56
2023-05-09T04:46:07.903Z,100702.72
2023-05-09T04:48:37.902Z,100700.59
2023-05-09T04:51:07.580Z,100693.97
2023-05-09T04:53:35.664Z,100692.19
2023-05-09T04:56:03.763Z,100699.47
2023-05-09T04:58:33.366Z,100693.06
2023-05-09T05:01:01.355Z,100689.66
2023-05-09T05:03:29.358Z,100700.47
2023-05-09T05:05:57.534Z,100692.75
2023-05-09T05:08:26.925Z,100692.59
2023-05-09T05:10:54.974Z,100696.00
2023-05-09T05:13:23.031Z,100701.13
2023-05-09T05:15:51.127Z,100691.09
2023-05-09T05:18:21.222Z,100679.06
2023-05-09T05:20:51.641Z,100679.56
2023-05-09T05:23:19.623Z,100673.03
2023-05-09T05:25:49.697Z,100672.94
2023-05-09T05:28:17.709Z,100667.94
2023-05-09T05:30:45.674Z,100665.53
2023-05-09T05:33:13.724Z,100671.97
2023-05-09T05:35:41.659Z,100668.06
2023-05-09T05:38:09.623Z,100665.78
2023-05-09T05:40:37.656Z,100666.72
2023-05-09T05:43:06.990Z,100666.00
2023-05-09T05:45:35.076Z,100666.13
2023-05-09T05:48:03.093Z,100672.19
2023-05-09T05:50:31.096Z,100665.41
2023-05-09T05:52:59.185Z,100667.84
2023-05-09T05:55:27.253Z,100665.06
2023-05-09T05:57:55.366Z,100658.03
2023-05-09T06:00:24.726Z,100661.28
2023-05-09T06:02:52.863Z,100655.22
2023-05-09T06:05:21.141Z,100654.28
2023-05-09T06:07:49.157Z,100653.19
2023-05-09T06:10:17.302Z,100644.22
2023-05-09T06:12:45.366Z,100643.47
2023-05-09T06:15:13.793Z,100633.44
2023-05-09T06:17:43.453Z,100638.69
2023-05-09T06:20:12.006Z,100634.06
2023-05-09T06:22:40.078Z,100623.47
2023-05-09T06:25:10.359Z,100624.84
2023-05-09T06:27:39.382Z,100615.88
2023-05-09T06:30:23.838Z,100620.34
2023-05-09T06:32:54.876Z,100611.97
2023-05-09T06:35:25.515Z,100617.50
2023-05-09T06:37:53.480Z,100609.63
2023-05-09T06:40:21.786Z,100617.31
2023-05-09T06:42:49.734Z,100616.25
2023-05-09T06:45:18.189Z,100610.28
2023-05-09T06:47:46.165Z,100613.06
2023-05-09T06:50:15.579Z,100611.97
2023-05-09T06:52:43.524Z,100616.34
2023-05-09T06:55:12.303Z,100610.88
2023-05-09T06:57:41.090Z,100600.78
2023-05-09T07:00:09.447Z,100609.00
2023-05-09T07:02:41.753Z,100604.06
2023-05-09T07:05:10.859Z,100603.22
2023-05-09T07:07:40.829Z,100598.88
2023-05-09T07:10:12.286Z,100608.19
2023-05-09T07:12:41.574Z,100599.97
2023-05-09T07:15:11.037Z,100602.72
2023-05-09T07:17:39.247Z,100596.66
2023-05-09T07:20:08.643Z,100586.31
2023-05-09T07:22:37.656Z,100587.69
2023-05-09T07:25:09.435Z,100594.53
2023-05-09T07:27:38.206Z,100584.97
2023-05-09T07:30:07.071Z,100583.91
2023-05-09T07:32:35.071Z,100578.19
2023-05-09T07:35:03.281Z,100578.16
2023-05-09T07:37:31.345Z,100574.38
2023-05-09T07:39:59.308Z,100567.81
2023-05-09T07:42:30.432Z,100566.44
2023-05-09T07:44:59.206Z,100568.91
2023-05-09T07:47:27.324Z,100556.56
2023-05-09T07:49:55.482Z,100562.28
2023-05-09T07:52:23.614Z,100554.06
2023-05-09T07:54:51.627Z,100554.53
2023-05-09T07:57:19.601Z,100539.19
2023-05-09T07:59:48.986Z,100543.25
2023-05-09T08:02:16.976Z,100548.91
2023-05-09T08:04:48.784Z,100543.06
2023-05-09T08:07:17.109Z,100534.84
2023-05-09T08:09:45.094Z,100538.50
2023-05-09T08:12:13.167Z,100537.19
2023-05-09T08:14:41.208Z,100525.47
2023-05-09T08:17:10.956Z,100526.94
2023-05-09T08:19:39.158Z,100518.06
2023-05-09T08:22:07.110Z,100523.16
2023-05-09T08:24:35.340Z,100521.41
2023-05-09T08:27:03.501Z,100524.75
2023-05-09T08:29:32.000Z,100527.22
2023-05-09T08:32:00.075Z,100521.78
2023-05-09T08:34:31.354Z,100515.66
2023-05-09T08:36:59.293Z,100513.06
2023-05-09T08:39:27.345Z,100514.69
2023-05-09T08:42:00.058Z,100508.69
2023-05-09T08:44:30.063Z,100502.13
2023-05-09T08:47:01.757Z,100499.25
2023-05-09T08:49:31.866Z,100503.19
2023-05-09T08:52:00.309Z,100504.00
2023-05-09T08:55:00.018Z,100495.03
2023-05-09T08:57:28.647Z,100494.25
2023-05-09T08:59:57.594Z,100494.47
2023-05-09T09:02:25.946Z,100486.81
2023-05-09T09:04:57.968Z,100497.41
2023-05-09T09:07:30.571Z,100485.19
2023-05-09T09:10:00.281Z,100485.09
2023-05-09T09:12:28.315Z,100478.31
2023-05-09T09:14:57.850Z,100472.81
2023-05-09T09:17:28.418Z,100475.66
2023-05-09T09:20:00.604Z,100463.63
2023-05-09T09:22:34.442Z,100467.28
2023-05-09T09:25:02.689Z,100471.28
2023-05-09T09:27:30.975Z,100448.31
2023-05-09T09:30:08.162Z,100461.63
2023-05-09T09:32:37.756Z,100467.75
2023-05-09T09:35:08.355Z,100464.97
2023-05-09T09:37:37.111Z,100477.13
2023-05-09T09:40:05.676Z,100467.03
2023-05-09T09:42:43.246Z,100467.41
2023-05-09T09:45:13.489Z,100465.56
2023-05-09T09:47:41.807Z,100465.81
2023-05-09T09:50:18.939Z,100466.31
2023-05-09T09:52:51.074Z,100458.72
2023-05-09T09:55:19.769Z,100458.56
2023-05-09T09:57:48.570Z,100449.47
2023-05-09T10:00:18.296Z,100449.97
2023-05-09T10:02:51.379Z,100445.16
2023-05-09T10:05:27.700Z,100450.56
2023-05-09T10:07:57.362Z,100452.47
2023-05-09T10:10:28.324Z,100447.59
2023-05-09T10:12:59.076Z,100451.25
2023-05-09T10:15:28.718Z,100441.06
2023-05-09T10:18:01.018Z,100441.28
2023-05-09T10:20:31.366Z,100425.22
2023-05-09T10:23:03.589Z,100422.66
2023-05-09T10:25:39.527Z,100418.97
2023-05-09T10:28:12.841Z,100424.72
2023-05-09T10:30:51.765Z,100432.47
2023-05-09T10:33:25.789Z,100424.13
2023-05-09T10:35:56.884Z,100414.69
2023-05-09T10:38:26.069Z,100421.38
2023-05-09T10:40:55.591Z,100414.59
2023-05-09T10:43:25.422Z,100416.84
2023-05-09T10:45:56.007Z,100418.44
2023-05-09T10:48:25.115Z,100413.16
2023-05-09T10:50:55.854Z,100413.81
2023-05-09T10:53:24.501Z,100405.56
2023-05-09T10:56:00.570Z,100404.31
2023-05-09T10:58:30.290Z,100390.50
2023-05-09T11:01:00.225Z,100396.38
2023-05-09T11:03:31.047Z,100402.22
2023-05-09T11:06:03.811Z,100413.53
2023-05-09T11:08:33.383Z,100395.97
2023-05-09T11:11:08.784Z,100387.81
2023-05-09T11:13:58.588Z,100390.28
2023-05-09T11:16:27.876Z,100388.56
2023-05-09T11:18:56.092Z,100395.03
2023-05-09T11:21:27.440Z,100388.19
2023-05-09T11:28:21.633Z,100378.31
2023-05-09T11:30:53.907Z,100379.97
2023-05-09T11:33:28.606Z,100363.56
2023-05-09T11:36:24.507Z,100362.78
2023-05-09T11:39:15.741Z,100356.16
2023-05-09T11:41:55.688Z,100357.44
2023-05-09T11:44:25.983Z,100354.53
2023-05-09T11:46:54.383Z,100353.53
2023-05-09T11:49:22.115Z,100349.66
2023-05-09T11:51:50.372Z,100344.59
2023-05-09T11:54:19.841Z,100347.78
2023-05-09T11:56:48.028Z,100351.16
2023-05-09T11:59:20.515Z,100346.44
2023-05-09T12:03:28.974Z,100342.06
2023-05-09T12:05:44.101Z,100335.56
2023-05-09T12:08:17.857Z,100347.63
2023-05-09T12:10:47.760Z,100322.88
2023-05-09T12:13:39.203Z,100327.81
2023-05-09T12:16:10.466Z,100321.75
2023-05-09T12:18:42.740Z,100319.94
2023-05-09T12:22:23.831Z,100314.56
2023-05-09T12:24:51.912Z,100314.19
2023-05-09T12:27:23.867Z,100306.19
2023-05-09T12:29:54.837Z,100300.94
2023-05-09T12:32:25.421Z,100297.75
2023-05-09T12:34:54.373Z,100301.00
2023-05-09T12:37:25.351Z,100306.41
2023-05-09T12:40:04.304Z,100310.22
2023-05-09T12:42:34.564Z,100302.22
2023-05-09T12:45:06.687Z,100292.91
2023-05-09T12:51:03.801Z,100290.81
2023-05-09T12:53:32.267Z,100292.34
2023-05-09T12:56:03.748Z,100281.41
2023-05-09T12:58:34.336Z,100286.44
2023-05-09T13:01:05.847Z,100284.03
2023-05-09T13:03:38.065Z,100271.75
2023-05-09T13:06:12.898Z,100265.13
2023-05-09T13:13:42.964Z,100252.38
2023-05-09T13:15:49.976Z,100254.28
2023-05-09T13:18:18.064Z,100263.47
2023-05-09T13:20:46.097Z,100249.75
2023-05-09T13:24:04.543Z,100245.25
2023-05-09T13:26:41.950Z,100242.06
2023-05-09T13:29:23.051Z,100231.56
2023-05-09T13:31:55.875Z,100241.56
2023-05-09T13:34:24.258Z,100242.63
2023-05-09T13:36:52.368Z,100232.16
2023-05-09T13:39:20.477Z,100237.09
2023-05-09T13:41:48.889Z,100243.03
2023-05-09T13:44:16.974Z,100229.16
2023-05-09T13:47:00.890Z,100231.78
2023-05-09T13:49:32.748Z,100235.16
2023-05-09T13:52:00.773Z,100232.88
2023-05-09T13:54:36.618Z,100223.91
2023-05-09T13:57:07.325Z,100226.44
2023-05-09T13:59:37.424Z,100217.41
2023-05-09T14:02:05.790Z,100215.28
2023-05-09T14:04:35.534Z,100212.16
2023-05-09T14:07:03.788Z,100199.22
2023-05-09T14:09:31.893Z,100210.25
2023-05-09T14:11:59.925Z,100208.56
2023-05-09T14:14:27.940Z,100201.53
2023-05-09T14:16:56.011Z,100206.31
2023-05-09T14:19:23.789Z,100201.19
2023-05-09T14:21:53.202Z,100199.53
2023-05-09T14:24:21.230Z,100208.28
2023-05-09T14:26:49.634Z,100201.16
2023-05-09T14:29:18.120Z,100203.03
2023-05-09T14:31:46.174Z,100193.78
2023-05-09T14:34:13.966Z,100206.41
2023-05-09T14:36:42.109Z,100188.47
2023-05-09T14:39:11.266Z,100184.13
2023-05-09T14:41:39.228Z,100181.72
2023-05-09T14:44:07.352Z,100178.09
2023-05-09T14:46:35.897Z,100172.41
2023-05-09T14:49:04.661Z,100178.13
2023-05-09T14:51:39.205Z,100167.28
2023-05-09T14:54:07.307Z,100165.97
2023-05-09T14:56:36.396Z,100165.88
2023-05-09T14:59:04.884Z,100168.69
2023-05-09T15:01:33.108Z,100169.00
2023-05-09T15:04:01.193Z,100167.66
2023-05-09T15:06:30.519Z,100169.22
2023-05-09T15:08:58.516Z,100164.25
2023-05-09T15:11:28.688Z,100169.31
2023-05-09T15:14:07.772Z,100166.50
2023-05-09T15:16:40.973Z,100168.34
2023-05-09T15:19:09.456Z,100169.31
2023-05-09T15:21:38.021Z,100165.72
2023-05-09T15:24:07.854Z,100156.56
2023-05-09T15:26:44.291Z,100159.00
2023-05-09T15:29:13.622Z,100152.69
2023-05-09T15:31:41.685Z,100154.28
2023-05-09T15:34:09.710Z,100156.81
2023-05-09T15:36:37.728Z,100154.63
2023-05-09T15:39:06.194Z,100150.16
2023-05-09T15:41:34.640Z,100153.97
2023-05-09T15:44:02.621Z,100149.31
2023-05-09T15:46:32.645Z,100135.06
2023-05-09T15:49:00.653Z,100140.91
2023-05-09T15:51:30.212Z,100131.16
2023-05-09T15:53:58.211Z,100137.56
2023-05-09T15:56:26.257Z,100142.91
2023-05-09T15:58:54.274Z,100129.69
2023-05-09T16:01:22.282Z,100118.09
2023-05-09T16:03:51.844Z,100129.63
2023-05-09T16:06:20.001Z,100125.28
2023-05-09T16:08:48.007Z,100122.97
2023-05-09T16:11:15.976Z,100128.34
2023-05-09T16:13:43.990Z,100120.59
2023-05-09T16:16:11.962Z,100113.63
2023-05-09T16:18:39.985Z,100114.38
2023-05-09T16:21:09.138Z,100118.22
2023-05-09T16:23:37.233Z,100114.22
2023-05-09T16:26:05.231Z,100109.81
2023-05-09T16:28:32.940Z,100109.44
2023-05-09T16:31:04.768Z,100111.84
2023-05-09T16:33:33.539Z,100105.28
2023-05-09T16:36:01.653Z,100112.16
2023-05-09T16:38:31.192Z,100108.06
2023-05-09T16:40:59.167Z,100102.31
2023-05-09T16:43:27.212Z,100103.81
2023-05-09T16:45:55.461Z,100096.13
2023-05-09T16:48:23.558Z,100099.47
2023-05-09T16:50:53.730Z,100094.41
2023-05-09T16:53:22.851Z,100087.06
2023-05-09T16:55:53.963Z,100079.91
2023-05-09T16:58:21.988Z,100084.78
2023-05-09T17:00:51.521Z,100083.84
2023-05-09T17:03:19.496Z,100086.50
2023-05-09T17:05:47.517Z,100081.72
2023-05-09T17:08:15.517Z,100083.72
2023-05-09T17:10:43.488Z,100073.84
2023-05-09T17:13:12.938Z,100069.63
2023-05-09T17:15:41.153Z,100067.38
2023-05-09T17:18:08.930Z,100071.22
2023-05-09T17:20:37.072Z,100065.50
2023-05-09T17:23:05.217Z,100065.38
2023-05-09T17:25:33.557Z,100078.97
2023-05-09T17:28:01.537Z,100062.44
2023-05-09T17:30:30.918Z,100064.78
2023-05-09T17:32:59.012Z,100066.25
2023-05-09T17:35:27.043Z,100069.06
2023-05-09T17:37:55.538Z,100077.53
2023-05-09T17:40:23.776Z,100067.50
2023-05-09T17:42:51.844Z,100067.72
2023-05-09T17:45:20.835Z,100066.81
2023-05-09T17:47:50.807Z,100071.66
2023-05-09T17:50:20.422Z,100072.34
2023-05-09T17:52:49.577Z,100067.84
2023-05-09T17:55:17.596Z,100065.28
2023-05-09T17:57:45.666Z,100065.91
2023-05-09T18:00:14.981Z,100070.72
2023-05-09T18:02:43.868Z,100062.88
2023-05-09T18:05:13.325Z,100064.97
2023-05-09T18:07:41.334Z,100063.22
2023-05-09T18:10:10.613Z,100066.09
2023-05-09T18:12:38.623Z,100064.75
2023-05-09T18:15:07.910Z,100070.94
2023-05-09T18:17:36.043Z,100061.69
2023-05-09T18:20:04.836Z,100059.84
2023-05-09T18:22:34.271Z,100063.47
2023-05-09T18:25:02.266Z,100057.91
2023-05-09T18:27:30.257Z,100064.94
2023-05-09T18:29:58.213Z,100069.19
2023-05-09T18:32:26.239Z,100071.53
2023-05-09T18:34:54.263Z,100074.47
2023-05-09T18:37:22.915Z,100075.19
2023-05-09T18:39:52.363Z,100070.81
2023-05-09T18:42:20.394Z,100080.47
2023-05-09T18:44:48.464Z,100082.38
2023-05-09T18:47:16.948Z,100081.97
2023-05-09T18:49:45.036Z,100076.66
2023-05-09T18:52:13.066Z,100093.38
2023-05-09T18:54:41.368Z,100089.88
2023-05-09T18:57:11.020Z,100084.44
2023-05-09T18:59:39.029Z,100088.56
2023-05-09T19:02:07.080Z,100084.06
2023-05-09T19:04:35.171Z,100079.03
2023-05-09T19:07:03.214Z,100078.59
2023-05-09T19:09:31.738Z,100085.91
2023-05-09T19:12:04.511Z,100075.38
2023-05-09T19:14:33.912Z,100077.53
2023-05-09T19:17:01.972Z,100068.47
2023-05-09T19:19:29.953Z,100082.28
2023-05-09T19:21:57.972Z,100079.34
2023-05-09T19:24:26.077Z,100081.44
2023-05-09T19:27:00.999Z,100080.16
2023-05-09T19:29:29.344Z,100078.69
2023-05-09T19:31:58.689Z,100083.22
2023-05-09T19:34:27.243Z,100084.16
2023-05-09T19:36:55.382Z,100078.31
2023-05-09T19:39:23.404Z,100086.56
2023-05-09T19:41:51.419Z,100089.47
2023-05-09T19:44:19.433Z,100091.38
2023-05-09T19:46:47.706Z,100080.81
2023-05-09T19:49:17.995Z,100088.72
2023-05-09T19:51:46.250Z,100087.53
2023-05-09T19:54:14.292Z,100088.91
2023-05-09T19:56:42.507Z,100091.41
2023-05-09T19:59:10.547Z,100095.50
2023-05-09T20:01:38.586Z,100089.56
2023-05-09T20:04:07.577Z,100092.50
2023-05-09T20:06:40.266Z,100095.50
2023-05-09T20:09:08.925Z,100098.78
2023-05-09T20:11:37.249Z,100099.16
2023-05-09T20:14:08.592Z,100086.16
2023-05-09T20:16:37.179Z,100094.09
2023-05-09T20:19:07.739Z,100099.06
2023-05-09T20:21:36.241Z,100095.69
2023-05-09T20:24:06.141Z,100102.63
2023-05-09T20:26:34.505Z,100100.59
2023-05-09T20:29:02.780Z,100098.78
2023-05-09T20:31:31.685Z,100112.53
2023-05-09T20:34:00.433Z,100111.59
2023-05-09T20:36:29.455Z,100118.72
2023-05-09T20:38:58.022Z,100109.44
2023-05-09T20:41:27.529Z,100107.72
2023-05-09T20:43:56.099Z,100115.38
2023-05-09T20:46:24.136Z,100121.56
2023-05-09T20:48:52.421Z,100120.91
2023-05-09T20:51:20.789Z,100108.91
2023-05-09T20:53:49.093Z,100120.22
2023-05-09T20:56:17.541Z,100115.00
2023-05-09T20:58:47.255Z,100114.59
2023-05-09T21:01:15.537Z,100119.88
2023-05-09T21:03:43.904Z,100113.06
2023-05-09T21:06:12.262Z,100119.94
2023-05-09T21:08:42.070Z,100115.25
2023-05-09T21:11:10.379Z,100111.69
2023-05-09T21:13:38.642Z,100112.38
2023-05-09T21:16:08.489Z,100110.75
2023-05-09T21:18:36.755Z,100125.47
2023-05-09T21:21:08.178Z,100120.81
2023-05-09T21:23:36.702Z,100109.91
2023-05-09T21:26:04.892Z,100117.53
2023-05-09T21:28:33.230Z,100115.66
2023-05-09T21:31:02.139Z,100112.19
2023-05-09T21:33:32.120Z,100118.25
2023-05-09T21:36:00.538Z,100122.63
2023-05-09T21:38:29.350Z,100118.38
2023-05-09T21:40:58.371Z,100123.53
2023-05-09T21:43:26.716Z,100121.41
2023-05-09T21:45:56.536Z,100114.00
2023-05-09T21:48:24.841Z,100124.72
2023-05-09T21:50:54.562Z,100119.75
2023-05-09T21:53:23.469Z,100114.81
2023-05-09T21:55:51.713Z,100119.69
2023-05-09T21:58:19.687Z,100118.06
2023-05-09T22:00:47.660Z,100112.34
2023-05-09T22:03:15.722Z,100109.09
2023-05-09T22:05:43.813Z,100114.56
2023-05-09T22:08:13.221Z,100110.00
2023-05-09T22:10:41.271Z,100116.59
2023-05-09T22:13:10.270Z,100113.69
2023-05-09T22:15:38.283Z,100113.69
2023-05-09T22:18:06.404Z,100120.06
2023-05-09T22:20:34.388Z,100122.56
2023-05-09T22:23:02.555Z,100116.28
2023-05-09T22:25:31.906Z,100123.69
2023-05-09T22:27:59.872Z,100120.75
2023-05-09T22:30:28.038Z,100116.78
2023-05-09T22:32:56.044Z,100119.03
2023-05-09T22:35:24.294Z,100118.25
2023-05-09T22:37:52.417Z,100123.53
2023-05-09T22:40:20.410Z,100131.75
2023-05-09T22:42:49.780Z,100130.63
2023-05-09T22:45:17.770Z,100127.25
2023-05-09T22:47:45.781Z,100134.47
2023-05-09T22:50:14.194Z,100124.09
2023-05-09T22:52:42.282Z,100117.31
2023-05-09T22:55:10.573Z,100125.91
2023-05-09T22:57:38.585Z,100123.22
2023-05-09T23:00:09.720Z,100118.91
2023-05-09T23:02:37.752Z,100111.09
2023-05-09T23:05:06.495Z,100122.38
2023-05-09T23:07:34.262Z,100124.09
2023-05-09T23:10:02.337Z,100128.59
2023-05-09T23:12:30.328Z,100123.69
2023-05-09T23:14:58.346Z,100125.13
2023-05-09T23:17:27.732Z,100133.44
2023-05-09T23:19:55.736Z,100135.69
2023-05-09T23:22:23.881Z,100127.25
2023-05-09T23:24:51.856Z,100122.13
2023-05-09T23:27:19.830Z,100120.53
2023-05-09T23:29:47.803Z,100136.41
2023-05-09T23:32:15.897Z,100128.28
2023-05-09T23:34:45.249Z,100143.88
2023-05-09T23:37:13.228Z,100135.16
2023-05-09T23:39:41.183Z,100146.41
2023-05-09T23:42:09.493Z,100147.03
2023-05-09T23:44:37.474Z,100144.81
2023-05-09T23:47:05.685Z,100146.22
2023-05-09T23:49:33.681Z,100147.03
2023-05-09T23:52:03.063Z,100149.78
2023-05-09T23:54:31.268Z,100144.06
2023-05-09T23:56:59.246Z,100148.13
2023-05-09T23:59:27.249Z,100149.25
